AVA8417 SKBO-SKCL
Flight info
| Callsign | AVA8417 |
|---|---|
| Flight time | 0h 31m |
| Altitude | 24000 |
| Route | VAPOM4R OREGA OREGA5A |
| Aircraft | A320/M-SDE3FGHIRWY/LB1 |
Departure
| Time | 2026-04-26 21:10 |
|---|---|
| Airport | El Dorado International Airport (SKBO) |
Arrival
| Time | 2026-04-26 21:41 |
|---|---|
| Airport | Alfonso Bonilla Aragon International Airport (SKCL) |
| Time | Latitude | Longitude | Altitude | Speed | Heading |
|---|---|---|---|---|---|
| 2026-04-26 20:50 | 4.69699 | -74.14598 | 8373 ft | 0 kts | 217° |
| 2026-04-26 20:59 | 4.69700 | -74.14597 | 8372 ft | 2 kts | 217° |
| 2026-04-26 21:00 | 4.69717 | -74.14584 | 8373 ft | 2 kts | 217° |
| 2026-04-26 21:00 | 4.69732 | -74.14570 | 8371 ft | 3 kts | 254° |
| 2026-04-26 21:00 | 4.69729 | -74.14551 | 8373 ft | 3 kts | 308° |
| 2026-04-26 21:00 | 4.69718 | -74.14537 | 8373 ft | 0 kts | 307° |
| 2026-04-26 21:05 | 4.69730 | -74.14554 | 8372 ft | 10 kts | 307° |
| 2026-04-26 21:05 | 4.69790 | -74.14632 | 8373 ft | 14 kts | 307° |
| 2026-04-26 21:05 | 4.69841 | -74.14700 | 8373 ft | 11 kts | 307° |
| 2026-04-26 21:06 | 4.69847 | -74.14749 | 8373 ft | 6 kts | 225° |
| 2026-04-26 21:06 | 4.69805 | -74.14780 | 8373 ft | 12 kts | 216° |
| 2026-04-26 21:06 | 4.69725 | -74.14806 | 8373 ft | 7 kts | 137° |
| 2026-04-26 21:06 | 4.69689 | -74.14754 | 8374 ft | 14 kts | 125° |
| 2026-04-26 21:07 | 4.69620 | -74.14661 | 8373 ft | 16 kts | 127° |
| 2026-04-26 21:07 | 4.69553 | -74.14574 | 8373 ft | 17 kts | 127° |
| 2026-04-26 21:07 | 4.69474 | -74.14469 | 8373 ft | 21 kts | 127° |
| 2026-04-26 21:07 | 4.69369 | -74.14330 | 8369 ft | 28 kts | 127° |
| 2026-04-26 21:08 | 4.69251 | -74.14176 | 8373 ft | 28 kts | 127° |
| 2026-04-26 21:08 | 4.69151 | -74.14049 | 8373 ft | 15 kts | 127° |
| 2026-04-26 21:08 | 4.69086 | -74.14033 | 8372 ft | 10 kts | 210° |
| 2026-04-26 21:08 | 4.69037 | -74.14082 | 8373 ft | 10 kts | 253° |
| 2026-04-26 21:09 | 4.69029 | -74.14163 | 8374 ft | 14 kts | 263° |
| 2026-04-26 21:09 | 4.69038 | -74.14254 | 8372 ft | 13 kts | 303° |
| 2026-04-26 21:09 | 4.69055 | -74.14275 | 8374 ft | 0 kts | 308° |
| 2026-04-26 21:09 | 4.69136 | -74.14381 | 8372 ft | 53 kts | 307° |
| 2026-04-26 21:10 | 4.69499 | -74.14861 | 8372 ft | 117 kts | 307° |
| 2026-04-26 21:10 | 4.70105 | -74.15661 | 8372 ft | 169 kts | 307° |
| 2026-04-26 21:10 | 4.70895 | -74.16697 | 8684 ft | 190 kts | 304° |
| 2026-04-26 21:10 | 4.71686 | -74.17748 | 9495 ft | 189 kts | 304° |
| 2026-04-26 21:11 | 4.72476 | -74.18798 | 10176 ft | 193 kts | 304° |
| 2026-04-26 21:11 | 4.73143 | -74.19965 | 10506 ft | 199 kts | 283° |
| 2026-04-26 21:11 | 4.73486 | -74.21389 | 10638 ft | 220 kts | 283° |
| 2026-04-26 21:11 | 4.73911 | -74.22943 | 10777 ft | 243 kts | 284° |
| 2026-04-26 21:12 | 4.74399 | -74.24650 | 10917 ft | 267 kts | 285° |
| 2026-04-26 21:12 | 4.74691 | -74.26558 | 11177 ft | 290 kts | 265° |
| 2026-04-26 21:12 | 4.74384 | -74.28602 | 11712 ft | 302 kts | 259° |
| 2026-04-26 21:12 | 4.73976 | -74.30684 | 12467 ft | 306 kts | 259° |
| 2026-04-26 21:13 | 4.73531 | -74.32780 | 13219 ft | 310 kts | 258° |
| 2026-04-26 21:13 | 4.73072 | -74.34905 | 13959 ft | 313 kts | 258° |
| 2026-04-26 21:13 | 4.72613 | -74.37062 | 14660 ft | 319 kts | 258° |
| 2026-04-26 21:13 | 4.72152 | -74.39255 | 15399 ft | 323 kts | 258° |
| 2026-04-26 21:14 | 4.71697 | -74.41467 | 16121 ft | 325 kts | 259° |
| 2026-04-26 21:14 | 4.71041 | -74.43637 | 16771 ft | 328 kts | 240° |
| 2026-04-26 21:14 | 4.69632 | -74.45447 | 17399 ft | 334 kts | 225° |
| 2026-04-26 21:14 | 4.67864 | -74.46983 | 18107 ft | 336 kts | 217° |
| 2026-04-26 21:15 | 4.65939 | -74.48379 | 18547 ft | 349 kts | 214° |
| 2026-04-26 21:15 | 4.63901 | -74.49757 | 18669 ft | 366 kts | 214° |
| 2026-04-26 21:15 | 4.61739 | -74.51228 | 18795 ft | 383 kts | 214° |
| 2026-04-26 21:15 | 4.59534 | -74.52783 | 19146 ft | 391 kts | 216° |
| 2026-04-26 21:16 | 4.57317 | -74.54408 | 19616 ft | 397 kts | 217° |
| 2026-04-26 21:16 | 4.55103 | -74.56085 | 20126 ft | 401 kts | 217° |
| 2026-04-26 21:16 | 4.52889 | -74.57792 | 20625 ft | 405 kts | 218° |
| 2026-04-26 21:16 | 4.50652 | -74.59531 | 21122 ft | 408 kts | 218° |
| 2026-04-26 21:17 | 4.48395 | -74.61285 | 21627 ft | 412 kts | 218° |
| 2026-04-26 21:17 | 4.46117 | -74.63045 | 22086 ft | 415 kts | 218° |
| 2026-04-26 21:17 | 4.43818 | -74.64814 | 22534 ft | 418 kts | 217° |
| 2026-04-26 21:17 | 4.41517 | -74.66617 | 22971 ft | 422 kts | 221° |
| 2026-04-26 21:18 | 4.39470 | -74.68730 | 23370 ft | 425 kts | 231° |
| 2026-04-26 21:18 | 4.37823 | -74.71191 | 23720 ft | 427 kts | 242° |
| 2026-04-26 21:18 | 4.36451 | -74.73837 | 23785 ft | 426 kts | 243° |
| 2026-04-26 21:18 | 4.35095 | -74.76472 | 23781 ft | 425 kts | 243° |
| 2026-04-26 21:19 | 4.33741 | -74.79103 | 23772 ft | 425 kts | 243° |
| 2026-04-26 21:19 | 4.32388 | -74.81730 | 23766 ft | 425 kts | 243° |
| 2026-04-26 21:19 | 4.31051 | -74.84328 | 23767 ft | 425 kts | 243° |
| 2026-04-26 21:19 | 4.29698 | -74.86961 | 23767 ft | 425 kts | 243° |
| 2026-04-26 21:20 | 4.28346 | -74.89591 | 23774 ft | 425 kts | 243° |
| 2026-04-26 21:20 | 4.26988 | -74.92228 | 23781 ft | 425 kts | 243° |
| 2026-04-26 21:20 | 4.25632 | -74.94858 | 23793 ft | 425 kts | 243° |
| 2026-04-26 21:20 | 4.24270 | -74.97495 | 23799 ft | 425 kts | 243° |
| 2026-04-26 21:21 | 4.22909 | -75.00134 | 23813 ft | 426 kts | 243° |
| 2026-04-26 21:21 | 4.21545 | -75.02779 | 23822 ft | 426 kts | 243° |
| 2026-04-26 21:21 | 4.20039 | -75.05337 | 23831 ft | 426 kts | 234° |
| 2026-04-26 21:21 | 4.18290 | -75.07686 | 23835 ft | 426 kts | 233° |
| 2026-04-26 21:22 | 4.16509 | -75.10057 | 23849 ft | 425 kts | 233° |
| 2026-04-26 21:22 | 4.14729 | -75.12434 | 23869 ft | 425 kts | 233° |
| 2026-04-26 21:22 | 4.12960 | -75.14803 | 23868 ft | 425 kts | 233° |
| 2026-04-26 21:23 | 4.09411 | -75.19555 | 23888 ft | 425 kts | 233° |
| 2026-04-26 21:23 | 4.07639 | -75.21926 | 23901 ft | 425 kts | 233° |
| 2026-04-26 21:23 | 4.05865 | -75.24298 | 23908 ft | 425 kts | 233° |
| 2026-04-26 21:23 | 4.04083 | -75.26674 | 23912 ft | 425 kts | 233° |
| 2026-04-26 21:24 | 4.02330 | -75.29013 | 23916 ft | 425 kts | 233° |
| 2026-04-26 21:24 | 4.00553 | -75.31388 | 23914 ft | 425 kts | 233° |
| 2026-04-26 21:24 | 3.98780 | -75.33756 | 23919 ft | 425 kts | 233° |
| 2026-04-26 21:24 | 3.97005 | -75.36123 | 23919 ft | 425 kts | 233° |
| 2026-04-26 21:25 | 3.95230 | -75.38491 | 23921 ft | 425 kts | 233° |
| 2026-04-26 21:25 | 3.93456 | -75.40858 | 23926 ft | 425 kts | 233° |
| 2026-04-26 21:25 | 3.91680 | -75.43227 | 23929 ft | 425 kts | 233° |
| 2026-04-26 21:25 | 3.89904 | -75.45595 | 23928 ft | 425 kts | 233° |
| 2026-04-26 21:26 | 3.88705 | -75.47193 | 23929 ft | 425 kts | 233° |
| 2026-04-26 21:26 | 3.87012 | -75.49574 | 23949 ft | 425 kts | 238° |
| 2026-04-26 21:26 | 3.85653 | -75.52198 | 23948 ft | 425 kts | 245° |
| 2026-04-26 21:26 | 3.84391 | -75.54881 | 23942 ft | 425 kts | 245° |
| 2026-04-26 21:27 | 3.83129 | -75.57555 | 23942 ft | 425 kts | 245° |
| 2026-04-26 21:27 | 3.81866 | -75.60233 | 23959 ft | 425 kts | 245° |
| 2026-04-26 21:27 | 3.80603 | -75.62909 | 23954 ft | 425 kts | 244° |
| 2026-04-26 21:27 | 3.79340 | -75.65587 | 23948 ft | 426 kts | 245° |
| 2026-04-26 21:28 | 3.78076 | -75.68269 | 23736 ft | 425 kts | 245° |
| 2026-04-26 21:28 | 3.76813 | -75.70953 | 23031 ft | 425 kts | 245° |
| 2026-04-26 21:28 | 3.75557 | -75.73613 | 22495 ft | 420 kts | 244° |
| 2026-04-26 21:28 | 3.74313 | -75.76242 | 21997 ft | 415 kts | 244° |
| 2026-04-26 21:29 | 3.73079 | -75.78844 | 21472 ft | 411 kts | 244° |
| 2026-04-26 21:29 | 3.71858 | -75.81421 | 20960 ft | 408 kts | 244° |
| 2026-04-26 21:29 | 3.70651 | -75.83979 | 20440 ft | 404 kts | 244° |
| 2026-04-26 21:29 | 3.69453 | -75.86513 | 19909 ft | 401 kts | 244° |
| 2026-04-26 21:30 | 3.68262 | -75.89031 | 19381 ft | 398 kts | 244° |
| 2026-04-26 21:30 | 3.67094 | -75.91501 | 18859 ft | 395 kts | 244° |
| 2026-04-26 21:30 | 3.65923 | -75.93977 | 18306 ft | 392 kts | 244° |
| 2026-04-26 21:30 | 3.64760 | -75.96442 | 17767 ft | 389 kts | 244° |
| 2026-04-26 21:31 | 3.63603 | -75.98888 | 17231 ft | 387 kts | 244° |
| 2026-04-26 21:31 | 3.62457 | -76.01313 | 16709 ft | 384 kts | 244° |
| 2026-04-26 21:31 | 3.61324 | -76.03715 | 16250 ft | 380 kts | 244° |
| 2026-04-26 21:31 | 3.60195 | -76.06104 | 15752 ft | 377 kts | 244° |
| 2026-04-26 21:32 | 3.59090 | -76.08442 | 15259 ft | 374 kts | 244° |
| 2026-04-26 21:32 | 3.57984 | -76.10785 | 14765 ft | 370 kts | 244° |
| 2026-04-26 21:32 | 3.56888 | -76.13108 | 14265 ft | 368 kts | 245° |
| 2026-04-26 21:32 | 3.55805 | -76.15401 | 13759 ft | 356 kts | 245° |
| 2026-04-26 21:33 | 3.54778 | -76.17575 | 13577 ft | 332 kts | 245° |
| 2026-04-26 21:33 | 3.53818 | -76.19610 | 13177 ft | 317 kts | 245° |
| 2026-04-26 21:33 | 3.52882 | -76.21591 | 12965 ft | 312 kts | 244° |
| 2026-04-26 21:33 | 3.51966 | -76.23528 | 12840 ft | 312 kts | 245° |
| 2026-04-26 21:34 | 3.51026 | -76.25496 | 12322 ft | 318 kts | 243° |
| 2026-04-26 21:34 | 3.49757 | -76.27288 | 12029 ft | 312 kts | 226° |
| 2026-04-26 21:34 | 3.48081 | -76.28629 | 11421 ft | 307 kts | 209° |
| 2026-04-26 21:34 | 3.46105 | -76.29394 | 10713 ft | 304 kts | 192° |
| 2026-04-26 21:35 | 3.44030 | -76.29841 | 9971 ft | 303 kts | 192° |
| 2026-04-26 21:35 | 3.42003 | -76.30277 | 9269 ft | 300 kts | 192° |
| 2026-04-26 21:35 | 3.40013 | -76.30709 | 8970 ft | 283 kts | 192° |
| 2026-04-26 21:35 | 3.38152 | -76.31117 | 8810 ft | 262 kts | 192° |
| 2026-04-26 21:36 | 3.36424 | -76.31499 | 8690 ft | 246 kts | 192° |
| 2026-04-26 21:36 | 3.34860 | -76.31999 | 8581 ft | 231 kts | 211° |
| 2026-04-26 21:36 | 3.33738 | -76.33082 | 8486 ft | 222 kts | 240° |
| 2026-04-26 21:36 | 3.33266 | -76.34535 | 8244 ft | 222 kts | 268° |
| 2026-04-26 21:37 | 3.33560 | -76.36052 | 7823 ft | 226 kts | 297° |
| 2026-04-26 21:37 | 3.34334 | -76.37399 | 7476 ft | 227 kts | 300° |
| 2026-04-26 21:37 | 3.35131 | -76.38770 | 7095 ft | 227 kts | 300° |
| 2026-04-26 21:37 | 3.35965 | -76.40089 | 6705 ft | 221 kts | 314° |
| 2026-04-26 21:38 | 3.37232 | -76.40884 | 6360 ft | 216 kts | 347° |
| 2026-04-26 21:38 | 3.38715 | -76.40886 | 6077 ft | 214 kts | 11° |
| 2026-04-26 21:38 | 3.40187 | -76.40623 | 5775 ft | 215 kts | 10° |
| 2026-04-26 21:38 | 3.41662 | -76.40365 | 5469 ft | 215 kts | 9° |
| 2026-04-26 21:39 | 3.43112 | -76.40113 | 5146 ft | 205 kts | 9° |
| 2026-04-26 21:39 | 3.44463 | -76.39879 | 4858 ft | 193 kts | 8° |
| 2026-04-26 21:39 | 3.45743 | -76.39656 | 4606 ft | 179 kts | 8° |
| 2026-04-26 21:39 | 3.46915 | -76.39453 | 4390 ft | 164 kts | 7° |
| 2026-04-26 21:40 | 3.48008 | -76.39264 | 4175 ft | 156 kts | 7° |
| 2026-04-26 21:40 | 3.49045 | -76.39082 | 3970 ft | 152 kts | 7° |
| 2026-04-26 21:40 | 3.50096 | -76.38901 | 3778 ft | 151 kts | 8° |
| 2026-04-26 21:40 | 3.51131 | -76.38722 | 3579 ft | 151 kts | 7° |
| 2026-04-26 21:41 | 3.52167 | -76.38544 | 3378 ft | 148 kts | 8° |
| 2026-04-26 21:41 | 3.53177 | -76.38362 | 3192 ft | 149 kts | 8° |
| 2026-04-26 21:41 | 3.54095 | -76.38207 | 3166 ft | 102 kts | 9° |
| 2026-04-26 21:41 | 3.54522 | -76.38135 | 3165 ft | 26 kts | 10° |
| 2026-04-26 21:42 | 3.54601 | -76.38188 | 3165 ft | 15 kts | 277° |
| 2026-04-26 21:42 | 3.54590 | -76.38283 | 3166 ft | 14 kts | 216° |
| 2026-04-26 21:42 | 3.54489 | -76.38301 | 3166 ft | 16 kts | 188° |
| 2026-04-26 21:42 | 3.54373 | -76.38323 | 3166 ft | 18 kts | 189° |
| 2026-04-26 21:43 | 3.54244 | -76.38345 | 3165 ft | 20 kts | 190° |
| 2026-04-26 21:43 | 3.54102 | -76.38372 | 3164 ft | 20 kts | 198° |
| 2026-04-26 21:43 | 3.53988 | -76.38460 | 3164 ft | 18 kts | 219° |
| 2026-04-26 21:43 | 3.53885 | -76.38548 | 3163 ft | 16 kts | 220° |
| 2026-04-26 21:44 | 3.53836 | -76.38613 | 3162 ft | 13 kts | 267° |
| 2026-04-26 21:44 | 3.53833 | -76.38671 | 3162 ft | 4 kts | 265° |
| 2026-04-26 21:44 | 3.53831 | -76.38694 | 3162 ft | 3 kts | 266° |
| 2026-04-26 21:44 | 3.53831 | -76.38703 | 3162 ft | 0 kts | 266° |